sensor_id;sensor_type;location;lat;lon;timestamp;P1;durP1;ratioP1;P2;durP2;ratioP2
82926;SDS011;72788;40.218;44.486;2023-12-20T00:01:47;21.33;;;7.78;;
82926;SDS011;72788;40.218;44.486;2023-12-20T00:04:12;20.17;;;10.25;;
82926;SDS011;72788;40.218;44.486;2023-12-20T00:06:38;19.55;;;8.63;;
82926;SDS011;72788;40.218;44.486;2023-12-20T00:09:04;25.50;;;9.98;;
82926;SDS011;72788;40.218;44.486;2023-12-20T00:11:29;24.20;;;9.82;;
82926;SDS011;72788;40.218;44.486;2023-12-20T00:13:55;23.17;;;9.75;;
82926;SDS011;72788;40.218;44.486;2023-12-20T00:16:20;27.20;;;10.68;;
82926;SDS011;72788;40.218;44.486;2023-12-20T00:18:46;23.77;;;9.27;;
82926;SDS011;72788;40.218;44.486;2023-12-20T00:21:12;18.67;;;9.00;;
82926;SDS011;72788;40.218;44.486;2023-12-20T00:23:37;23.42;;;10.88;;
82926;SDS011;72788;40.218;44.486;2023-12-20T00:26:03;19.17;;;9.60;;
82926;SDS011;72788;40.218;44.486;2023-12-20T00:28:29;20.92;;;9.55;;
82926;SDS011;72788;40.218;44.486;2023-12-20T00:30:54;20.92;;;8.52;;
82926;SDS011;72788;40.218;44.486;2023-12-20T00:33:20;25.80;;;9.70;;
82926;SDS011;72788;40.218;44.486;2023-12-20T00:35:46;17.98;;;9.38;;
82926;SDS011;72788;40.218;44.486;2023-12-20T00:38:11;28.73;;;10.45;;
82926;SDS011;72788;40.218;44.486;2023-12-20T00:40:37;20.88;;;10.20;;
82926;SDS011;72788;40.218;44.486;2023-12-20T00:43:03;21.02;;;9.93;;
82926;SDS011;72788;40.218;44.486;2023-12-20T00:45:29;19.58;;;9.10;;
82926;SDS011;72788;40.218;44.486;2023-12-20T00:47:54;20.92;;;8.80;;
82926;SDS011;72788;40.218;44.486;2023-12-20T00:50:20;19.52;;;8.95;;
82926;SDS011;72788;40.218;44.486;2023-12-20T00:52:47;17.75;;;6.35;;
82926;SDS011;72788;40.218;44.486;2023-12-20T00:55:13;20.85;;;7.80;;
82926;SDS011;72788;40.218;44.486;2023-12-20T00:57:39;20.75;;;9.23;;
82926;SDS011;72788;40.218;44.486;2023-12-20T01:00:05;16.33;;;7.72;;
82926;SDS011;72788;40.218;44.486;2023-12-20T01:02:31;21.42;;;8.13;;
82926;SDS011;72788;40.218;44.486;2023-12-20T01:04:56;22.35;;;9.10;;
82926;SDS011;72788;40.218;44.486;2023-12-20T01:07:22;24.20;;;8.25;;
82926;SDS011;72788;40.218;44.486;2023-12-20T01:09:48;18.95;;;8.55;;
82926;SDS011;72788;40.218;44.486;2023-12-20T01:12:14;17.25;;;8.40;;
82926;SDS011;72788;40.218;44.486;2023-12-20T01:14:40;19.17;;;8.73;;
82926;SDS011;72788;40.218;44.486;2023-12-20T01:17:05;18.55;;;7.65;;
82926;SDS011;72788;40.218;44.486;2023-12-20T01:19:31;21.33;;;8.98;;
82926;SDS011;72788;40.218;44.486;2023-12-20T01:21:57;17.73;;;7.95;;
82926;SDS011;72788;40.218;44.486;2023-12-20T01:24:22;20.08;;;8.40;;
82926;SDS011;72788;40.218;44.486;2023-12-20T01:26:48;23.20;;;9.38;;
82926;SDS011;72788;40.218;44.486;2023-12-20T01:29:14;27.50;;;8.25;;
82926;SDS011;72788;40.218;44.486;2023-12-20T01:31:41;22.80;;;8.23;;
82926;SDS011;72788;40.218;44.486;2023-12-20T01:34:06;19.80;;;8.00;;
82926;SDS011;72788;40.218;44.486;2023-12-20T01:36:32;19.17;;;8.77;;
82926;SDS011;72788;40.218;44.486;2023-12-20T01:38:58;20.88;;;8.20;;
82926;SDS011;72788;40.218;44.486;2023-12-20T01:41:23;19.80;;;8.75;;
82926;SDS011;72788;40.218;44.486;2023-12-20T01:43:49;18.85;;;8.65;;
82926;SDS011;72788;40.218;44.486;2023-12-20T01:46:16;23.38;;;8.13;;
82926;SDS011;72788;40.218;44.486;2023-12-20T01:48:42;19.30;;;7.72;;
82926;SDS011;72788;40.218;44.486;2023-12-20T01:51:08;21.15;;;7.72;;
82926;SDS011;72788;40.218;44.486;2023-12-20T01:53:35;19.08;;;7.63;;
82926;SDS011;72788;40.218;44.486;2023-12-20T01:56:00;19.58;;;6.63;;
82926;SDS011;72788;40.218;44.486;2023-12-20T01:58:26;22.20;;;8.93;;
82926;SDS011;72788;40.218;44.486;2023-12-20T02:00:53;19.27;;;7.75;;
82926;SDS011;72788;40.218;44.486;2023-12-20T02:03:19;20.55;;;7.50;;
82926;SDS011;72788;40.218;44.486;2023-12-20T02:05:46;23.73;;;9.00;;
82926;SDS011;72788;40.218;44.486;2023-12-20T02:08:13;17.75;;;7.78;;
82926;SDS011;72788;40.218;44.486;2023-12-20T02:10:38;21.38;;;8.95;;
82926;SDS011;72788;40.218;44.486;2023-12-20T02:13:06;22.63;;;7.22;;
82926;SDS011;72788;40.218;44.486;2023-12-20T02:15:31;19.40;;;8.23;;
82926;SDS011;72788;40.218;44.486;2023-12-20T02:17:57;22.52;;;7.88;;
82926;SDS011;72788;40.218;44.486;2023-12-20T02:20:23;23.35;;;9.10;;
82926;SDS011;72788;40.218;44.486;2023-12-20T02:22:48;22.40;;;8.15;;
82926;SDS011;72788;40.218;44.486;2023-12-20T02:25:14;21.88;;;7.78;;
82926;SDS011;72788;40.218;44.486;2023-12-20T02:27:40;19.08;;;9.43;;
82926;SDS011;72788;40.218;44.486;2023-12-20T02:30:06;27.85;;;9.68;;
82926;SDS011;72788;40.218;44.486;2023-12-20T02:32:32;23.33;;;8.80;;
82926;SDS011;72788;40.218;44.486;2023-12-20T02:34:58;21.02;;;8.63;;
82926;SDS011;72788;40.218;44.486;2023-12-20T02:37:23;22.60;;;9.18;;
82926;SDS011;72788;40.218;44.486;2023-12-20T02:39:49;20.13;;;8.27;;
82926;SDS011;72788;40.218;44.486;2023-12-20T02:42:15;18.85;;;7.57;;
82926;SDS011;72788;40.218;44.486;2023-12-20T02:44:41;22.15;;;8.98;;
82926;SDS011;72788;40.218;44.486;2023-12-20T02:47:06;18.98;;;7.63;;
82926;SDS011;72788;40.218;44.486;2023-12-20T02:49:32;24.60;;;8.63;;
82926;SDS011;72788;40.218;44.486;2023-12-20T02:51:58;17.88;;;6.78;;
82926;SDS011;72788;40.218;44.486;2023-12-20T02:54:23;18.17;;;7.93;;
82926;SDS011;72788;40.218;44.486;2023-12-20T02:56:49;20.83;;;7.68;;
82926;SDS011;72788;40.218;44.486;2023-12-20T02:59:14;18.83;;;7.53;;
82926;SDS011;72788;40.218;44.486;2023-12-20T03:01:44;20.05;;;7.00;;
82926;SDS011;72788;40.218;44.486;2023-12-20T03:04:10;19.45;;;7.72;;
82926;SDS011;72788;40.218;44.486;2023-12-20T03:06:36;18.23;;;7.05;;
82926;SDS011;72788;40.218;44.486;2023-12-20T03:09:02;21.88;;;6.78;;
82926;SDS011;72788;40.218;44.486;2023-12-20T03:11:28;19.33;;;7.80;;
82926;SDS011;72788;40.218;44.486;2023-12-20T03:13:54;17.60;;;6.55;;
82926;SDS011;72788;40.218;44.486;2023-12-20T03:16:20;12.48;;;6.00;;
82926;SDS011;72788;40.218;44.486;2023-12-20T03:18:46;20.77;;;8.02;;
82926;SDS011;72788;40.218;44.486;2023-12-20T03:21:12;24.52;;;8.13;;
82926;SDS011;72788;40.218;44.486;2023-12-20T03:23:38;17.73;;;7.15;;
82926;SDS011;72788;40.218;44.486;2023-12-20T03:26:06;15.40;;;6.20;;
82926;SDS011;72788;40.218;44.486;2023-12-20T03:28:33;15.52;;;7.35;;
82926;SDS011;72788;40.218;44.486;2023-12-20T03:30:59;18.88;;;7.80;;
82926;SDS011;72788;40.218;44.486;2023-12-20T03:33:25;14.68;;;6.90;;
82926;SDS011;72788;40.218;44.486;2023-12-20T03:35:50;14.32;;;6.82;;
82926;SDS011;72788;40.218;44.486;2023-12-20T03:38:16;17.45;;;6.32;;
82926;SDS011;72788;40.218;44.486;2023-12-20T03:40:42;18.30;;;6.47;;
82926;SDS011;72788;40.218;44.486;2023-12-20T03:43:07;17.80;;;6.35;;
82926;SDS011;72788;40.218;44.486;2023-12-20T03:45:33;16.60;;;7.88;;
82926;SDS011;72788;40.218;44.486;2023-12-20T03:47:59;18.52;;;5.97;;
82926;SDS011;72788;40.218;44.486;2023-12-20T03:50:28;15.30;;;6.38;;
82926;SDS011;72788;40.218;44.486;2023-12-20T03:52:54;16.35;;;6.30;;
82926;SDS011;72788;40.218;44.486;2023-12-20T03:55:19;20.35;;;6.93;;
82926;SDS011;72788;40.218;44.486;2023-12-20T03:57:45;15.60;;;6.05;;
82926;SDS011;72788;40.218;44.486;2023-12-20T04:00:11;16.90;;;6.80;;
82926;SDS011;72788;40.218;44.486;2023-12-20T04:02:37;19.02;;;7.10;;
82926;SDS011;72788;40.218;44.486;2023-12-20T04:05:04;20.95;;;6.63;;
82926;SDS011;72788;40.218;44.486;2023-12-20T04:07:30;15.40;;;5.65;;
82926;SDS011;72788;40.218;44.486;2023-12-20T04:09:56;17.25;;;6.80;;
82926;SDS011;72788;40.218;44.486;2023-12-20T04:12:21;18.55;;;6.55;;
82926;SDS011;72788;40.218;44.486;2023-12-20T04:14:47;16.23;;;6.30;;
82926;SDS011;72788;40.218;44.486;2023-12-20T04:17:13;17.02;;;7.38;;
82926;SDS011;72788;40.218;44.486;2023-12-20T04:19:41;17.88;;;5.93;;
82926;SDS011;72788;40.218;44.486;2023-12-20T04:22:07;19.15;;;6.75;;
82926;SDS011;72788;40.218;44.486;2023-12-20T04:24:32;14.25;;;5.50;;
82926;SDS011;72788;40.218;44.486;2023-12-20T04:26:58;13.55;;;6.00;;
82926;SDS011;72788;40.218;44.486;2023-12-20T04:29:24;17.42;;;7.20;;
82926;SDS011;72788;40.218;44.486;2023-12-20T04:31:49;15.45;;;6.63;;
82926;SDS011;72788;40.218;44.486;2023-12-20T04:34:17;20.13;;;6.28;;
82926;SDS011;72788;40.218;44.486;2023-12-20T04:36:43;20.35;;;7.15;;
82926;SDS011;72788;40.218;44.486;2023-12-20T04:39:09;17.25;;;6.32;;
82926;SDS011;72788;40.218;44.486;2023-12-20T04:41:35;17.02;;;6.70;;
82926;SDS011;72788;40.218;44.486;2023-12-20T04:44:01;19.67;;;6.70;;
82926;SDS011;72788;40.218;44.486;2023-12-20T04:46:27;17.70;;;7.13;;
82926;SDS011;72788;40.218;44.486;2023-12-20T04:48:52;12.80;;;6.15;;
82926;SDS011;72788;40.218;44.486;2023-12-20T04:51:18;17.23;;;7.07;;
82926;SDS011;72788;40.218;44.486;2023-12-20T04:53:44;23.45;;;7.70;;
82926;SDS011;72788;40.218;44.486;2023-12-20T04:56:10;24.33;;;7.13;;
82926;SDS011;72788;40.218;44.486;2023-12-20T04:58:35;25.10;;;9.32;;
82926;SDS011;72788;40.218;44.486;2023-12-20T05:01:01;15.65;;;6.45;;
82926;SDS011;72788;40.218;44.486;2023-12-20T05:03:26;22.95;;;7.80;;
82926;SDS011;72788;40.218;44.486;2023-12-20T05:05:52;20.73;;;7.78;;
82926;SDS011;72788;40.218;44.486;2023-12-20T05:08:18;17.65;;;7.20;;
82926;SDS011;72788;40.218;44.486;2023-12-20T05:10:43;21.33;;;8.05;;
82926;SDS011;72788;40.218;44.486;2023-12-20T05:13:09;18.30;;;8.32;;
82926;SDS011;72788;40.218;44.486;2023-12-20T05:15:35;16.08;;;8.07;;
82926;SDS011;72788;40.218;44.486;2023-12-20T05:18:00;20.95;;;8.00;;
82926;SDS011;72788;40.218;44.486;2023-12-20T05:20:26;19.42;;;8.23;;
82926;SDS011;72788;40.218;44.486;2023-12-20T05:22:51;23.63;;;8.18;;
82926;SDS011;72788;40.218;44.486;2023-12-20T05:25:17;23.48;;;8.75;;
82926;SDS011;72788;40.218;44.486;2023-12-20T05:27:43;17.70;;;8.13;;
82926;SDS011;72788;40.218;44.486;2023-12-20T05:30:09;20.90;;;8.55;;
82926;SDS011;72788;40.218;44.486;2023-12-20T05:32:35;20.02;;;7.78;;
82926;SDS011;72788;40.218;44.486;2023-12-20T05:35:01;20.88;;;8.70;;
82926;SDS011;72788;40.218;44.486;2023-12-20T05:37:28;26.20;;;8.70;;
82926;SDS011;72788;40.218;44.486;2023-12-20T05:39:53;20.83;;;9.32;;
82926;SDS011;72788;40.218;44.486;2023-12-20T05:42:19;22.73;;;9.18;;
82926;SDS011;72788;40.218;44.486;2023-12-20T05:44:45;27.10;;;9.77;;
82926;SDS011;72788;40.218;44.486;2023-12-20T05:47:10;27.77;;;9.13;;
82926;SDS011;72788;40.218;44.486;2023-12-20T05:49:36;31.60;;;11.15;;
82926;SDS011;72788;40.218;44.486;2023-12-20T05:52:02;36.55;;;10.95;;
82926;SDS011;72788;40.218;44.486;2023-12-20T05:54:27;54.15;;;29.52;;
82926;SDS011;72788;40.218;44.486;2023-12-20T05:56:53;79.57;;;41.83;;
82926;SDS011;72788;40.218;44.486;2023-12-20T05:59:19;43.42;;;21.70;;
82926;SDS011;72788;40.218;44.486;2023-12-20T06:01:45;74.68;;;37.65;;
82926;SDS011;72788;40.218;44.486;2023-12-20T06:04:11;49.20;;;24.73;;
82926;SDS011;72788;40.218;44.486;2023-12-20T06:06:40;36.03;;;16.83;;
82926;SDS011;72788;40.218;44.486;2023-12-20T06:09:07;59.63;;;28.05;;
82926;SDS011;72788;40.218;44.486;2023-12-20T06:11:33;32.70;;;15.68;;
82926;SDS011;72788;40.218;44.486;2023-12-20T06:13:59;76.55;;;41.58;;
82926;SDS011;72788;40.218;44.486;2023-12-20T06:16:24;45.55;;;16.95;;
82926;SDS011;72788;40.218;44.486;2023-12-20T06:18:50;80.80;;;45.58;;
82926;SDS011;72788;40.218;44.486;2023-12-20T06:21:16;83.55;;;52.78;;
82926;SDS011;72788;40.218;44.486;2023-12-20T06:23:41;66.00;;;35.83;;
82926;SDS011;72788;40.218;44.486;2023-12-20T06:26:07;94.45;;;46.28;;
82926;SDS011;72788;40.218;44.486;2023-12-20T06:28:33;81.40;;;48.88;;
82926;SDS011;72788;40.218;44.486;2023-12-20T06:30:58;75.70;;;43.22;;
82926;SDS011;72788;40.218;44.486;2023-12-20T06:33:25;138.48;;;88.22;;
82926;SDS011;72788;40.218;44.486;2023-12-20T06:35:51;51.88;;;29.95;;
82926;SDS011;72788;40.218;44.486;2023-12-20T06:38:17;106.25;;;59.25;;
82926;SDS011;72788;40.218;44.486;2023-12-20T06:40:44;125.55;;;76.47;;
82926;SDS011;72788;40.218;44.486;2023-12-20T06:43:10;78.32;;;40.10;;
82926;SDS011;72788;40.218;44.486;2023-12-20T06:45:37;75.22;;;47.05;;
82926;SDS011;72788;40.218;44.486;2023-12-20T06:48:02;91.18;;;60.20;;
82926;SDS011;72788;40.218;44.486;2023-12-20T06:50:28;83.75;;;51.33;;
82926;SDS011;72788;40.218;44.486;2023-12-20T06:52:54;50.53;;;19.38;;
82926;SDS011;72788;40.218;44.486;2023-12-20T06:55:20;37.80;;;17.73;;
82926;SDS011;72788;40.218;44.486;2023-12-20T06:57:45;47.55;;;20.02;;
82926;SDS011;72788;40.218;44.486;2023-12-20T07:00:11;45.85;;;21.92;;
82926;SDS011;72788;40.218;44.486;2023-12-20T07:02:37;51.78;;;24.80;;
82926;SDS011;72788;40.218;44.486;2023-12-20T07:05:03;50.05;;;26.38;;
82926;SDS011;72788;40.218;44.486;2023-12-20T07:07:29;57.25;;;33.35;;
82926;SDS011;72788;40.218;44.486;2023-12-20T07:09:55;34.63;;;15.70;;
82926;SDS011;72788;40.218;44.486;2023-12-20T07:12:21;59.67;;;24.05;;
82926;SDS011;72788;40.218;44.486;2023-12-20T07:14:46;82.20;;;40.45;;
82926;SDS011;72788;40.218;44.486;2023-12-20T07:17:12;46.28;;;23.25;;
82926;SDS011;72788;40.218;44.486;2023-12-20T07:19:40;51.65;;;22.98;;
82926;SDS011;72788;40.218;44.486;2023-12-20T07:22:07;45.78;;;23.02;;
82926;SDS011;72788;40.218;44.486;2023-12-20T07:24:33;64.22;;;28.73;;
82926;SDS011;72788;40.218;44.486;2023-12-20T07:27:02;73.85;;;40.75;;
82926;SDS011;72788;40.218;44.486;2023-12-20T07:29:28;59.97;;;22.27;;
82926;SDS011;72788;40.218;44.486;2023-12-20T07:31:54;37.55;;;14.23;;
82926;SDS011;72788;40.218;44.486;2023-12-20T07:34:20;65.47;;;24.10;;
82926;SDS011;72788;40.218;44.486;2023-12-20T07:36:46;68.40;;;32.53;;
82926;SDS011;72788;40.218;44.486;2023-12-20T07:39:12;34.28;;;16.33;;
82926;SDS011;72788;40.218;44.486;2023-12-20T07:41:38;54.08;;;21.65;;
82926;SDS011;72788;40.218;44.486;2023-12-20T07:44:04;47.58;;;17.48;;
82926;SDS011;72788;40.218;44.486;2023-12-20T07:46:29;35.20;;;15.45;;
82926;SDS011;72788;40.218;44.486;2023-12-20T07:48:55;39.63;;;14.30;;
82926;SDS011;72788;40.218;44.486;2023-12-20T07:51:21;37.75;;;19.90;;
82926;SDS011;72788;40.218;44.486;2023-12-20T07:53:48;49.25;;;17.70;;
82926;SDS011;72788;40.218;44.486;2023-12-20T07:56:17;62.13;;;29.83;;
82926;SDS011;72788;40.218;44.486;2023-12-20T07:58:44;58.40;;;29.25;;
82926;SDS011;72788;40.218;44.486;2023-12-20T08:01:10;61.10;;;32.63;;
82926;SDS011;72788;40.218;44.486;2023-12-20T08:03:37;67.68;;;34.30;;
82926;SDS011;72788;40.218;44.486;2023-12-20T08:06:03;40.63;;;18.52;;
82926;SDS011;72788;40.218;44.486;2023-12-20T08:08:29;61.38;;;30.20;;
82926;SDS011;72788;40.218;44.486;2023-12-20T08:10:55;66.95;;;34.65;;
82926;SDS011;72788;40.218;44.486;2023-12-20T08:13:23;81.80;;;30.73;;
82926;SDS011;72788;40.218;44.486;2023-12-20T08:15:51;54.33;;;26.85;;
82926;SDS011;72788;40.218;44.486;2023-12-20T08:18:17;74.43;;;27.52;;
82926;SDS011;72788;40.218;44.486;2023-12-20T08:20:43;70.47;;;31.67;;
82926;SDS011;72788;40.218;44.486;2023-12-20T08:23:08;101.10;;;41.97;;
82926;SDS011;72788;40.218;44.486;2023-12-20T08:25:34;87.10;;;38.83;;
82926;SDS011;72788;40.218;44.486;2023-12-20T08:28:01;111.45;;;42.85;;
82926;SDS011;72788;40.218;44.486;2023-12-20T08:30:28;77.45;;;38.70;;
82926;SDS011;72788;40.218;44.486;2023-12-20T08:32:54;101.60;;;46.58;;
82926;SDS011;72788;40.218;44.486;2023-12-20T08:35:20;79.78;;;40.33;;
82926;SDS011;72788;40.218;44.486;2023-12-20T08:37:46;79.72;;;38.90;;
82926;SDS011;72788;40.218;44.486;2023-12-20T08:40:11;98.45;;;40.60;;
82926;SDS011;72788;40.218;44.486;2023-12-20T08:42:37;103.82;;;39.33;;
82926;SDS011;72788;40.218;44.486;2023-12-20T08:45:03;101.53;;;42.63;;
82926;SDS011;72788;40.218;44.486;2023-12-20T08:47:29;95.72;;;44.50;;
82926;SDS011;72788;40.218;44.486;2023-12-20T08:49:55;83.80;;;34.67;;
82926;SDS011;72788;40.218;44.486;2023-12-20T08:52:23;94.47;;;38.15;;
82926;SDS011;72788;40.218;44.486;2023-12-20T08:54:49;85.47;;;35.60;;
82926;SDS011;72788;40.218;44.486;2023-12-20T08:57:20;72.93;;;32.25;;
82926;SDS011;72788;40.218;44.486;2023-12-20T08:59:46;89.55;;;42.75;;
82926;SDS011;72788;40.218;44.486;2023-12-20T09:02:13;72.22;;;34.00;;
82926;SDS011;72788;40.218;44.486;2023-12-20T09:04:39;82.45;;;36.88;;
82926;SDS011;72788;40.218;44.486;2023-12-20T09:07:05;66.97;;;30.83;;
82926;SDS011;72788;40.218;44.486;2023-12-20T09:09:31;67.68;;;28.65;;
82926;SDS011;72788;40.218;44.486;2023-12-20T09:11:57;66.18;;;30.65;;
82926;SDS011;72788;40.218;44.486;2023-12-20T09:14:23;61.22;;;31.95;;
82926;SDS011;72788;40.218;44.486;2023-12-20T09:16:49;76.57;;;34.78;;
82926;SDS011;72788;40.218;44.486;2023-12-20T09:19:16;60.05;;;29.83;;
82926;SDS011;72788;40.218;44.486;2023-12-20T09:21:42;67.53;;;31.70;;
82926;SDS011;72788;40.218;44.486;2023-12-20T09:24:08;53.13;;;25.83;;
82926;SDS011;72788;40.218;44.486;2023-12-20T09:26:34;59.92;;;26.80;;
82926;SDS011;72788;40.218;44.486;2023-12-20T09:29:00;49.05;;;25.15;;
82926;SDS011;72788;40.218;44.486;2023-12-20T09:31:26;58.50;;;29.70;;
82926;SDS011;72788;40.218;44.486;2023-12-20T09:33:52;75.85;;;43.22;;
82926;SDS011;72788;40.218;44.486;2023-12-20T09:36:17;61.90;;;31.70;;
82926;SDS011;72788;40.218;44.486;2023-12-20T09:38:43;61.75;;;24.63;;
82926;SDS011;72788;40.218;44.486;2023-12-20T09:41:08;81.68;;;43.20;;
82926;SDS011;72788;40.218;44.486;2023-12-20T09:43:37;76.90;;;35.15;;
82926;SDS011;72788;40.218;44.486;2023-12-20T09:46:05;53.63;;;27.35;;
82926;SDS011;72788;40.218;44.486;2023-12-20T09:48:32;52.13;;;22.55;;
82926;SDS011;72788;40.218;44.486;2023-12-20T09:50:59;47.08;;;22.10;;
82926;SDS011;72788;40.218;44.486;2023-12-20T09:53:24;46.28;;;23.15;;
82926;SDS011;72788;40.218;44.486;2023-12-20T09:55:56;52.33;;;24.92;;
82926;SDS011;72788;40.218;44.486;2023-12-20T09:58:27;68.68;;;35.90;;
82926;SDS011;72788;40.218;44.486;2023-12-20T10:00:53;76.30;;;29.08;;
82926;SDS011;72788;40.218;44.486;2023-12-20T10:03:24;64.78;;;26.85;;
82926;SDS011;72788;40.218;44.486;2023-12-20T10:05:57;62.38;;;29.70;;
82926;SDS011;72788;40.218;44.486;2023-12-20T10:08:23;71.07;;;35.75;;
82926;SDS011;72788;40.218;44.486;2023-12-20T10:10:49;55.00;;;29.25;;
82926;SDS011;72788;40.218;44.486;2023-12-20T10:13:15;58.05;;;27.25;;
82926;SDS011;72788;40.218;44.486;2023-12-20T10:15:41;48.40;;;23.55;;
82926;SDS011;72788;40.218;44.486;2023-12-20T10:18:07;47.33;;;22.88;;
82926;SDS011;72788;40.218;44.486;2023-12-20T10:20:33;57.83;;;27.58;;
82926;SDS011;72788;40.218;44.486;2023-12-20T10:22:59;51.10;;;24.98;;
82926;SDS011;72788;40.218;44.486;2023-12-20T10:25:26;122.47;;;43.97;;
82926;SDS011;72788;40.218;44.486;2023-12-20T10:30:53;50.85;;;24.90;;
82926;SDS011;72788;40.218;44.486;2023-12-20T10:33:27;67.70;;;33.50;;
82926;SDS011;72788;40.218;44.486;2023-12-20T10:36:00;64.97;;;33.05;;
82926;SDS011;72788;40.218;44.486;2023-12-20T10:38:25;92.72;;;42.65;;
82926;SDS011;72788;40.218;44.486;2023-12-20T10:40:56;114.53;;;42.35;;
82926;SDS011;72788;40.218;44.486;2023-12-20T10:43:26;107.75;;;44.53;;
82926;SDS011;72788;40.218;44.486;2023-12-20T10:45:54;53.88;;;26.85;;
82926;SDS011;72788;40.218;44.486;2023-12-20T10:48:19;68.90;;;27.33;;
82926;SDS011;72788;40.218;44.486;2023-12-20T10:50:47;61.42;;;28.17;;
82926;SDS011;72788;40.218;44.486;2023-12-20T10:53:14;84.22;;;40.10;;
82926;SDS011;72788;40.218;44.486;2023-12-20T10:55:41;67.20;;;31.23;;
82926;SDS011;72788;40.218;44.486;2023-12-20T10:58:09;90.78;;;35.33;;
82926;SDS011;72788;40.218;44.486;2023-12-20T11:00:38;74.95;;;33.63;;
82926;SDS011;72788;40.218;44.486;2023-12-20T11:03:10;97.25;;;38.08;;
82926;SDS011;72788;40.218;44.486;2023-12-20T11:05:49;82.60;;;35.33;;
82926;SDS011;72788;40.218;44.486;2023-12-20T11:08:28;68.53;;;31.60;;
82926;SDS011;72788;40.218;44.486;2023-12-20T11:13:40;71.03;;;30.33;;
82926;SDS011;72788;40.218;44.486;2023-12-20T11:16:18;78.13;;;34.55;;
82926;SDS011;72788;40.218;44.486;2023-12-20T11:18:44;70.45;;;31.90;;
82926;SDS011;72788;40.218;44.486;2023-12-20T11:21:10;60.47;;;30.05;;
82926;SDS011;72788;40.218;44.486;2023-12-20T11:23:36;70.20;;;31.98;;
82926;SDS011;72788;40.218;44.486;2023-12-20T11:26:02;69.50;;;34.08;;
82926;SDS011;72788;40.218;44.486;2023-12-20T11:28:28;67.22;;;34.30;;
82926;SDS011;72788;40.218;44.486;2023-12-20T11:30:57;89.72;;;32.00;;
82926;SDS011;72788;40.218;44.486;2023-12-20T11:33:30;69.05;;;32.13;;
82926;SDS011;72788;40.218;44.486;2023-12-20T11:36:01;75.10;;;30.60;;
82926;SDS011;72788;40.218;44.486;2023-12-20T11:38:28;76.30;;;30.10;;
82926;SDS011;72788;40.218;44.486;2023-12-20T11:41:02;74.78;;;35.55;;
82926;SDS011;72788;40.218;44.486;2023-12-20T11:43:38;75.57;;;33.08;;
82926;SDS011;72788;40.218;44.486;2023-12-20T11:46:05;68.53;;;32.13;;
82926;SDS011;72788;40.218;44.486;2023-12-20T11:48:31;66.97;;;32.85;;
82926;SDS011;72788;40.218;44.486;2023-12-20T11:50:58;102.90;;;41.35;;
82926;SDS011;72788;40.218;44.486;2023-12-20T11:53:23;64.65;;;28.48;;
82926;SDS011;72788;40.218;44.486;2023-12-20T11:55:49;74.50;;;33.53;;
82926;SDS011;72788;40.218;44.486;2023-12-20T11:58:15;84.57;;;36.70;;
82926;SDS011;72788;40.218;44.486;2023-12-20T12:00:42;80.80;;;34.60;;
82926;SDS011;72788;40.218;44.486;2023-12-20T12:03:08;72.28;;;29.63;;
82926;SDS011;72788;40.218;44.486;2023-12-20T12:05:34;75.43;;;29.40;;
82926;SDS011;72788;40.218;44.486;2023-12-20T12:08:00;70.55;;;30.58;;
82926;SDS011;72788;40.218;44.486;2023-12-20T12:10:26;58.97;;;27.67;;
82926;SDS011;72788;40.218;44.486;2023-12-20T12:12:52;59.92;;;27.83;;
82926;SDS011;72788;40.218;44.486;2023-12-20T12:15:18;68.55;;;30.73;;
82926;SDS011;72788;40.218;44.486;2023-12-20T12:17:44;66.57;;;27.85;;
82926;SDS011;72788;40.218;44.486;2023-12-20T12:20:19;79.00;;;30.55;;
82926;SDS011;72788;40.218;44.486;2023-12-20T12:22:45;68.05;;;29.55;;
82926;SDS011;72788;40.218;44.486;2023-12-20T12:25:15;80.35;;;30.08;;
82926;SDS011;72788;40.218;44.486;2023-12-20T12:27:41;56.35;;;27.95;;
82926;SDS011;72788;40.218;44.486;2023-12-20T12:30:08;63.92;;;28.13;;
82926;SDS011;72788;40.218;44.486;2023-12-20T12:32:35;58.35;;;27.77;;
82926;SDS011;72788;40.218;44.486;2023-12-20T12:35:04;64.80;;;27.52;;
82926;SDS011;72788;40.218;44.486;2023-12-20T12:37:33;56.95;;;26.33;;
82926;SDS011;72788;40.218;44.486;2023-12-20T12:40:00;60.70;;;27.20;;
82926;SDS011;72788;40.218;44.486;2023-12-20T12:42:26;54.97;;;24.98;;
82926;SDS011;72788;40.218;44.486;2023-12-20T12:44:54;60.55;;;27.35;;
82926;SDS011;72788;40.218;44.486;2023-12-20T12:47:21;62.20;;;27.45;;
82926;SDS011;72788;40.218;44.486;2023-12-20T12:49:47;63.03;;;28.33;;
82926;SDS011;72788;40.218;44.486;2023-12-20T12:52:16;61.47;;;26.10;;
82926;SDS011;72788;40.218;44.486;2023-12-20T12:54:42;54.67;;;26.95;;
82926;SDS011;72788;40.218;44.486;2023-12-20T12:57:10;55.55;;;26.15;;
82926;SDS011;72788;40.218;44.486;2023-12-20T12:59:36;64.00;;;29.30;;
82926;SDS011;72788;40.218;44.486;2023-12-20T13:02:01;56.45;;;26.67;;
82926;SDS011;72788;40.218;44.486;2023-12-20T13:04:27;55.10;;;26.25;;
82926;SDS011;72788;40.218;44.486;2023-12-20T13:06:53;57.80;;;28.27;;
82926;SDS011;72788;40.218;44.486;2023-12-20T13:09:19;65.20;;;28.25;;
82926;SDS011;72788;40.218;44.486;2023-12-20T13:11:44;64.07;;;28.10;;
82926;SDS011;72788;40.218;44.486;2023-12-20T13:14:10;71.95;;;26.63;;
82926;SDS011;72788;40.218;44.486;2023-12-20T13:16:40;55.83;;;26.13;;
82926;SDS011;72788;40.218;44.486;2023-12-20T13:19:06;66.78;;;26.92;;
82926;SDS011;72788;40.218;44.486;2023-12-20T13:21:32;61.78;;;27.95;;
82926;SDS011;72788;40.218;44.486;2023-12-20T13:23:58;63.40;;;27.75;;
82926;SDS011;72788;40.218;44.486;2023-12-20T13:26:24;63.42;;;25.90;;
82926;SDS011;72788;40.218;44.486;2023-12-20T13:28:50;62.03;;;26.45;;
82926;SDS011;72788;40.218;44.486;2023-12-20T13:31:15;67.68;;;28.95;;
82926;SDS011;72788;40.218;44.486;2023-12-20T13:33:41;65.88;;;25.67;;
82926;SDS011;72788;40.218;44.486;2023-12-20T13:36:07;66.20;;;27.48;;
82926;SDS011;72788;40.218;44.486;2023-12-20T13:38:33;75.00;;;29.35;;
82926;SDS011;72788;40.218;44.486;2023-12-20T13:40:58;67.95;;;30.75;;
82926;SDS011;72788;40.218;44.486;2023-12-20T13:43:24;63.55;;;27.55;;
82926;SDS011;72788;40.218;44.486;2023-12-20T13:45:50;59.83;;;28.45;;
82926;SDS011;72788;40.218;44.486;2023-12-20T13:48:16;61.63;;;27.33;;
82926;SDS011;72788;40.218;44.486;2023-12-20T13:50:42;67.43;;;29.58;;
82926;SDS011;72788;40.218;44.486;2023-12-20T13:53:07;57.55;;;25.85;;
82926;SDS011;72788;40.218;44.486;2023-12-20T13:55:33;64.32;;;26.63;;
82926;SDS011;72788;40.218;44.486;2023-12-20T13:57:59;51.40;;;26.38;;
82926;SDS011;72788;40.218;44.486;2023-12-20T14:00:24;61.72;;;26.48;;
82926;SDS011;72788;40.218;44.486;2023-12-20T14:02:50;56.83;;;24.75;;
82926;SDS011;72788;40.218;44.486;2023-12-20T14:05:16;67.97;;;24.25;;
82926;SDS011;72788;40.218;44.486;2023-12-20T14:07:45;49.25;;;25.00;;
82926;SDS011;72788;40.218;44.486;2023-12-20T14:10:12;59.00;;;24.13;;
82926;SDS011;72788;40.218;44.486;2023-12-20T14:12:41;75.30;;;22.30;;
82926;SDS011;72788;40.218;44.486;2023-12-20T14:15:07;53.67;;;25.20;;